sensor_id;sensor_type;location;lat;lon;timestamp;P1;durP1;ratioP1;P2;durP2;ratioP2
6973;SDS011;3527;52.376;8.990;2022-12-08T00:02:31;25.57;;;14.53;;
6973;SDS011;3527;52.376;8.990;2022-12-08T00:05:19;25.47;;;13.77;;
6973;SDS011;3527;52.376;8.990;2022-12-08T00:08:24;23.17;;;14.07;;
6973;SDS011;3527;52.376;8.990;2022-12-08T00:11:30;23.77;;;14.40;;
6973;SDS011;3527;52.376;8.990;2022-12-08T00:14:17;28.47;;;15.57;;
6973;SDS011;3527;52.376;8.990;2022-12-08T00:17:05;26.67;;;15.73;;
6973;SDS011;3527;52.376;8.990;2022-12-08T00:19:53;26.27;;;15.23;;
6973;SDS011;3527;52.376;8.990;2022-12-08T00:22:40;26.20;;;15.67;;
6973;SDS011;3527;52.376;8.990;2022-12-08T00:25:27;23.70;;;15.40;;
6973;SDS011;3527;52.376;8.990;2022-12-08T00:28:14;24.57;;;15.63;;
6973;SDS011;3527;52.376;8.990;2022-12-08T00:31:08;26.73;;;15.87;;
6973;SDS011;3527;52.376;8.990;2022-12-08T00:33:56;22.43;;;15.23;;
6973;SDS011;3527;52.376;8.990;2022-12-08T00:36:44;26.37;;;15.13;;
6973;SDS011;3527;52.376;8.990;2022-12-08T00:39:31;24.47;;;14.90;;
6973;SDS011;3527;52.376;8.990;2022-12-08T00:42:18;25.87;;;15.37;;
6973;SDS011;3527;52.376;8.990;2022-12-08T00:45:05;27.47;;;15.67;;
6973;SDS011;3527;52.376;8.990;2022-12-08T00:47:53;24.03;;;15.07;;
6973;SDS011;3527;52.376;8.990;2022-12-08T00:50:40;25.03;;;17.00;;
6973;SDS011;3527;52.376;8.990;2022-12-08T00:53:27;30.07;;;16.80;;
6973;SDS011;3527;52.376;8.990;2022-12-08T00:56:14;27.40;;;18.20;;
6973;SDS011;3527;52.376;8.990;2022-12-08T00:59:02;27.83;;;17.37;;
6973;SDS011;3527;52.376;8.990;2022-12-08T01:01:50;31.53;;;18.00;;
6973;SDS011;3527;52.376;8.990;2022-12-08T01:04:37;25.83;;;17.10;;
6973;SDS011;3527;52.376;8.990;2022-12-08T01:07:24;27.30;;;17.13;;
6973;SDS011;3527;52.376;8.990;2022-12-08T01:10:11;26.13;;;17.03;;
6973;SDS011;3527;52.376;8.990;2022-12-08T01:12:58;26.73;;;16.47;;
6973;SDS011;3527;52.376;8.990;2022-12-08T01:15:45;31.77;;;16.73;;
6973;SDS011;3527;52.376;8.990;2022-12-08T01:18:33;27.90;;;16.80;;
6973;SDS011;3527;52.376;8.990;2022-12-08T01:21:20;26.33;;;16.23;;
6973;SDS011;3527;52.376;8.990;2022-12-08T01:24:11;29.53;;;16.87;;
6973;SDS011;3527;52.376;8.990;2022-12-08T01:26:59;29.13;;;16.47;;
6973;SDS011;3527;52.376;8.990;2022-12-08T01:29:46;35.83;;;17.83;;
6973;SDS011;3527;52.376;8.990;2022-12-08T01:32:33;29.30;;;17.13;;
6973;SDS011;3527;52.376;8.990;2022-12-08T01:35:20;30.87;;;17.67;;
6973;SDS011;3527;52.376;8.990;2022-12-08T01:38:07;32.30;;;16.97;;
6973;SDS011;3527;52.376;8.990;2022-12-08T01:40:55;27.33;;;17.50;;
6973;SDS011;3527;52.376;8.990;2022-12-08T01:43:44;29.13;;;17.47;;
6973;SDS011;3527;52.376;8.990;2022-12-08T01:46:44;27.47;;;17.67;;
6973;SDS011;3527;52.376;8.990;2022-12-08T01:49:35;28.80;;;18.23;;
6973;SDS011;3527;52.376;8.990;2022-12-08T01:52:24;29.73;;;18.37;;
6973;SDS011;3527;52.376;8.990;2022-12-08T01:55:22;32.50;;;18.93;;
6973;SDS011;3527;52.376;8.990;2022-12-08T01:58:20;29.07;;;18.40;;
6973;SDS011;3527;52.376;8.990;2022-12-08T02:01:12;28.87;;;19.90;;
6973;SDS011;3527;52.376;8.990;2022-12-08T02:04:01;28.77;;;19.60;;
6973;SDS011;3527;52.376;8.990;2022-12-08T02:06:50;30.07;;;20.23;;
6973;SDS011;3527;52.376;8.990;2022-12-08T02:09:38;29.50;;;19.13;;
6973;SDS011;3527;52.376;8.990;2022-12-08T02:12:26;30.00;;;20.07;;
6973;SDS011;3527;52.376;8.990;2022-12-08T02:15:13;28.43;;;19.47;;
6973;SDS011;3527;52.376;8.990;2022-12-08T02:27:45;29.97;;;19.23;;
6973;SDS011;3527;52.376;8.990;2022-12-08T02:31:41;27.10;;;18.83;;
6973;SDS011;3527;52.376;8.990;2022-12-08T02:43:07;33.37;;;20.97;;
6973;SDS011;3527;52.376;8.990;2022-12-08T02:46:00;32.03;;;21.23;;
6973;SDS011;3527;52.376;8.990;2022-12-08T02:48:51;34.93;;;21.57;;
6973;SDS011;3527;52.376;8.990;2022-12-08T02:51:38;33.87;;;21.70;;
6973;SDS011;3527;52.376;8.990;2022-12-08T02:54:25;36.63;;;22.60;;
6973;SDS011;3527;52.376;8.990;2022-12-08T03:00:22;34.97;;;21.83;;
6973;SDS011;3527;52.376;8.990;2022-12-08T03:03:30;39.63;;;22.97;;
6973;SDS011;3527;52.376;8.990;2022-12-08T03:06:41;32.57;;;21.87;;
6973;SDS011;3527;52.376;8.990;2022-12-08T03:09:36;35.10;;;21.57;;
6973;SDS011;3527;52.376;8.990;2022-12-08T03:12:31;33.13;;;20.77;;
6973;SDS011;3527;52.376;8.990;2022-12-08T03:15:23;35.07;;;20.63;;
6973;SDS011;3527;52.376;8.990;2022-12-08T03:18:11;33.67;;;22.00;;
6973;SDS011;3527;52.376;8.990;2022-12-08T03:21:01;36.70;;;21.50;;
6973;SDS011;3527;52.376;8.990;2022-12-08T03:23:49;39.50;;;22.63;;
6973;SDS011;3527;52.376;8.990;2022-12-08T03:26:51;37.07;;;23.43;;
6973;SDS011;3527;52.376;8.990;2022-12-08T03:29:40;42.13;;;22.57;;
6973;SDS011;3527;52.376;8.990;2022-12-08T03:32:34;39.57;;;22.43;;
6973;SDS011;3527;52.376;8.990;2022-12-08T03:35:26;35.60;;;21.53;;
6973;SDS011;3527;52.376;8.990;2022-12-08T03:38:16;37.97;;;21.67;;
6973;SDS011;3527;52.376;8.990;2022-12-08T03:41:03;34.47;;;21.67;;
6973;SDS011;3527;52.376;8.990;2022-12-08T03:44:05;31.13;;;20.97;;
6973;SDS011;3527;52.376;8.990;2022-12-08T03:46:53;31.03;;;19.93;;
6973;SDS011;3527;52.376;8.990;2022-12-08T03:49:40;33.03;;;21.27;;
6973;SDS011;3527;52.376;8.990;2022-12-08T03:52:28;32.30;;;21.20;;
6973;SDS011;3527;52.376;8.990;2022-12-08T03:55:15;36.07;;;19.87;;
6973;SDS011;3527;52.376;8.990;2022-12-08T03:58:03;30.17;;;19.00;;
6973;SDS011;3527;52.376;8.990;2022-12-08T04:00:53;30.93;;;19.77;;
6973;SDS011;3527;52.376;8.990;2022-12-08T04:03:40;32.13;;;20.03;;
6973;SDS011;3527;52.376;8.990;2022-12-08T04:06:27;34.07;;;20.40;;
6973;SDS011;3527;52.376;8.990;2022-12-08T04:09:14;35.70;;;20.70;;
6973;SDS011;3527;52.376;8.990;2022-12-08T04:12:01;37.23;;;21.40;;
6973;SDS011;3527;52.376;8.990;2022-12-08T04:14:48;33.17;;;20.30;;
6973;SDS011;3527;52.376;8.990;2022-12-08T04:17:35;35.60;;;20.17;;
6973;SDS011;3527;52.376;8.990;2022-12-08T04:20:22;35.03;;;21.23;;
6973;SDS011;3527;52.376;8.990;2022-12-08T04:23:09;35.23;;;21.20;;
6973;SDS011;3527;52.376;8.990;2022-12-08T04:25:58;32.10;;;19.07;;
6973;SDS011;3527;52.376;8.990;2022-12-08T04:28:45;34.87;;;19.43;;
6973;SDS011;3527;52.376;8.990;2022-12-08T04:31:32;29.87;;;19.37;;
6973;SDS011;3527;52.376;8.990;2022-12-08T04:34:19;32.87;;;19.67;;
6973;SDS011;3527;52.376;8.990;2022-12-08T04:37:06;36.03;;;19.33;;
6973;SDS011;3527;52.376;8.990;2022-12-08T04:39:53;34.37;;;20.50;;
6973;SDS011;3527;52.376;8.990;2022-12-08T04:42:40;29.40;;;20.10;;
6973;SDS011;3527;52.376;8.990;2022-12-08T04:45:27;30.93;;;20.33;;
6973;SDS011;3527;52.376;8.990;2022-12-08T04:48:14;35.63;;;19.30;;
6973;SDS011;3527;52.376;8.990;2022-12-08T04:51:01;28.90;;;19.07;;
6973;SDS011;3527;52.376;8.990;2022-12-08T04:53:48;29.27;;;19.10;;
6973;SDS011;3527;52.376;8.990;2022-12-08T04:56:35;31.73;;;18.93;;
6973;SDS011;3527;52.376;8.990;2022-12-08T04:59:22;29.00;;;18.60;;
6973;SDS011;3527;52.376;8.990;2022-12-08T05:02:09;33.70;;;19.70;;
6973;SDS011;3527;52.376;8.990;2022-12-08T05:04:56;25.90;;;18.27;;
6973;SDS011;3527;52.376;8.990;2022-12-08T05:07:43;28.63;;;18.87;;
6973;SDS011;3527;52.376;8.990;2022-12-08T05:10:31;28.93;;;18.90;;
6973;SDS011;3527;52.376;8.990;2022-12-08T05:13:18;25.20;;;17.23;;
6973;SDS011;3527;52.376;8.990;2022-12-08T05:16:06;29.60;;;18.90;;
6973;SDS011;3527;52.376;8.990;2022-12-08T05:18:55;29.00;;;18.93;;
6973;SDS011;3527;52.376;8.990;2022-12-08T05:21:43;30.47;;;20.37;;
6973;SDS011;3527;52.376;8.990;2022-12-08T05:24:31;28.03;;;18.60;;
6973;SDS011;3527;52.376;8.990;2022-12-08T05:27:18;32.37;;;18.73;;
6973;SDS011;3527;52.376;8.990;2022-12-08T05:30:05;26.90;;;18.83;;
6973;SDS011;3527;52.376;8.990;2022-12-08T05:32:53;29.37;;;18.97;;
6973;SDS011;3527;52.376;8.990;2022-12-08T05:35:40;29.90;;;18.93;;
6973;SDS011;3527;52.376;8.990;2022-12-08T05:38:27;29.47;;;18.80;;
6973;SDS011;3527;52.376;8.990;2022-12-08T05:41:18;28.83;;;18.80;;
6973;SDS011;3527;52.376;8.990;2022-12-08T05:44:06;30.33;;;19.13;;
6973;SDS011;3527;52.376;8.990;2022-12-08T05:46:54;31.17;;;18.60;;
6973;SDS011;3527;52.376;8.990;2022-12-08T05:49:41;26.83;;;17.70;;
6973;SDS011;3527;52.376;8.990;2022-12-08T05:52:28;25.93;;;17.87;;
6973;SDS011;3527;52.376;8.990;2022-12-08T05:55:15;25.43;;;17.07;;
6973;SDS011;3527;52.376;8.990;2022-12-08T05:58:02;27.30;;;17.00;;
6973;SDS011;3527;52.376;8.990;2022-12-08T06:00:53;23.60;;;16.83;;
6973;SDS011;3527;52.376;8.990;2022-12-08T06:03:40;27.03;;;17.27;;
6973;SDS011;3527;52.376;8.990;2022-12-08T06:06:29;26.00;;;16.87;;
6973;SDS011;3527;52.376;8.990;2022-12-08T06:09:21;23.47;;;17.23;;
6973;SDS011;3527;52.376;8.990;2022-12-08T06:12:08;22.80;;;16.17;;
6973;SDS011;3527;52.376;8.990;2022-12-08T06:14:57;22.03;;;16.00;;
6973;SDS011;3527;52.376;8.990;2022-12-08T06:17:44;23.90;;;16.40;;
6973;SDS011;3527;52.376;8.990;2022-12-08T06:20:31;24.83;;;17.07;;
6973;SDS011;3527;52.376;8.990;2022-12-08T06:23:19;24.17;;;17.33;;
6973;SDS011;3527;52.376;8.990;2022-12-08T06:26:08;23.17;;;15.53;;
6973;SDS011;3527;52.376;8.990;2022-12-08T06:28:59;24.17;;;17.13;;
6973;SDS011;3527;52.376;8.990;2022-12-08T06:31:47;22.23;;;16.43;;
6973;SDS011;3527;52.376;8.990;2022-12-08T06:34:34;28.10;;;18.20;;
6973;SDS011;3527;52.376;8.990;2022-12-08T06:37:21;28.87;;;18.30;;
6973;SDS011;3527;52.376;8.990;2022-12-08T06:40:08;26.43;;;18.23;;
6973;SDS011;3527;52.376;8.990;2022-12-08T06:42:55;27.77;;;18.73;;
6973;SDS011;3527;52.376;8.990;2022-12-08T06:45:42;29.87;;;18.47;;
6973;SDS011;3527;52.376;8.990;2022-12-08T06:48:29;25.23;;;18.03;;
6973;SDS011;3527;52.376;8.990;2022-12-08T06:51:17;29.17;;;19.80;;
6973;SDS011;3527;52.376;8.990;2022-12-08T06:54:05;27.73;;;18.47;;
6973;SDS011;3527;52.376;8.990;2022-12-08T06:56:52;29.30;;;19.70;;
6973;SDS011;3527;52.376;8.990;2022-12-08T06:59:39;33.83;;;20.03;;
6973;SDS011;3527;52.376;8.990;2022-12-08T07:02:26;29.20;;;20.13;;
6973;SDS011;3527;52.376;8.990;2022-12-08T07:05:14;32.53;;;20.50;;
6973;SDS011;3527;52.376;8.990;2022-12-08T07:08:01;30.23;;;21.57;;
6973;SDS011;3527;52.376;8.990;2022-12-08T07:10:48;33.37;;;21.17;;
6973;SDS011;3527;52.376;8.990;2022-12-08T07:13:35;31.47;;;20.50;;
6973;SDS011;3527;52.376;8.990;2022-12-08T07:16:22;32.70;;;21.23;;
6973;SDS011;3527;52.376;8.990;2022-12-08T07:19:10;35.03;;;23.10;;
6973;SDS011;3527;52.376;8.990;2022-12-08T07:21:57;34.83;;;21.53;;
6973;SDS011;3527;52.376;8.990;2022-12-08T07:24:44;33.27;;;22.30;;
6973;SDS011;3527;52.376;8.990;2022-12-08T07:27:31;34.37;;;22.17;;
6973;SDS011;3527;52.376;8.990;2022-12-08T07:30:18;32.70;;;22.07;;
6973;SDS011;3527;52.376;8.990;2022-12-08T07:33:05;34.20;;;22.30;;
6973;SDS011;3527;52.376;8.990;2022-12-08T07:35:56;35.17;;;21.67;;
6973;SDS011;3527;52.376;8.990;2022-12-08T07:38:44;34.33;;;22.53;;
6973;SDS011;3527;52.376;8.990;2022-12-08T07:41:31;33.87;;;21.60;;
6973;SDS011;3527;52.376;8.990;2022-12-08T07:44:19;32.53;;;21.00;;
6973;SDS011;3527;52.376;8.990;2022-12-08T07:47:06;31.87;;;21.03;;
6973;SDS011;3527;52.376;8.990;2022-12-08T07:49:53;35.07;;;21.93;;
6973;SDS011;3527;52.376;8.990;2022-12-08T07:52:40;33.50;;;21.57;;
6973;SDS011;3527;52.376;8.990;2022-12-08T07:55:27;29.77;;;20.70;;
6973;SDS011;3527;52.376;8.990;2022-12-08T07:58:14;33.00;;;21.57;;
6973;SDS011;3527;52.376;8.990;2022-12-08T08:01:01;35.47;;;20.97;;
6973;SDS011;3527;52.376;8.990;2022-12-08T08:03:48;36.37;;;23.07;;
6973;SDS011;3527;52.376;8.990;2022-12-08T08:06:35;33.60;;;21.27;;
6973;SDS011;3527;52.376;8.990;2022-12-08T08:09:24;31.37;;;20.93;;
6973;SDS011;3527;52.376;8.990;2022-12-08T08:12:11;33.53;;;21.77;;
6973;SDS011;3527;52.376;8.990;2022-12-08T08:15:18;35.90;;;22.17;;
6973;SDS011;3527;52.376;8.990;2022-12-08T08:18:07;31.67;;;21.00;;
6973;SDS011;3527;52.376;8.990;2022-12-08T08:20:55;30.37;;;20.17;;
6973;SDS011;3527;52.376;8.990;2022-12-08T08:23:43;30.10;;;20.57;;
6973;SDS011;3527;52.376;8.990;2022-12-08T08:26:32;33.33;;;22.63;;
6973;SDS011;3527;52.376;8.990;2022-12-08T08:29:21;32.50;;;20.80;;
6973;SDS011;3527;52.376;8.990;2022-12-08T08:32:09;33.37;;;21.83;;
6973;SDS011;3527;52.376;8.990;2022-12-08T08:34:56;28.93;;;19.87;;
6973;SDS011;3527;52.376;8.990;2022-12-08T08:37:43;31.60;;;19.93;;
6973;SDS011;3527;52.376;8.990;2022-12-08T08:40:34;27.67;;;18.93;;
6973;SDS011;3527;52.376;8.990;2022-12-08T08:43:21;27.03;;;18.00;;
6973;SDS011;3527;52.376;8.990;2022-12-08T08:46:23;29.13;;;18.20;;
6973;SDS011;3527;52.376;8.990;2022-12-08T08:49:10;26.73;;;17.13;;
6973;SDS011;3527;52.376;8.990;2022-12-08T08:51:58;23.70;;;16.67;;
6973;SDS011;3527;52.376;8.990;2022-12-08T08:54:45;27.00;;;18.07;;
6973;SDS011;3527;52.376;8.990;2022-12-08T08:57:32;25.93;;;17.03;;
6973;SDS011;3527;52.376;8.990;2022-12-08T09:00:19;23.50;;;16.33;;
6973;SDS011;3527;52.376;8.990;2022-12-08T09:03:06;24.17;;;16.53;;
6973;SDS011;3527;52.376;8.990;2022-12-08T09:05:54;24.17;;;15.80;;
6973;SDS011;3527;52.376;8.990;2022-12-08T09:08:42;22.43;;;15.60;;
6973;SDS011;3527;52.376;8.990;2022-12-08T09:11:30;24.50;;;15.90;;
6973;SDS011;3527;52.376;8.990;2022-12-08T09:14:18;28.13;;;16.17;;
6973;SDS011;3527;52.376;8.990;2022-12-08T09:17:05;24.37;;;16.13;;
6973;SDS011;3527;52.376;8.990;2022-12-08T09:19:54;22.57;;;15.73;;
6973;SDS011;3527;52.376;8.990;2022-12-08T09:22:41;26.10;;;17.37;;
6973;SDS011;3527;52.376;8.990;2022-12-08T09:25:28;25.80;;;16.60;;
6973;SDS011;3527;52.376;8.990;2022-12-08T09:28:15;22.37;;;15.43;;
6973;SDS011;3527;52.376;8.990;2022-12-08T09:31:02;25.47;;;16.57;;
6973;SDS011;3527;52.376;8.990;2022-12-08T09:33:50;25.07;;;16.27;;
6973;SDS011;3527;52.376;8.990;2022-12-08T09:36:37;21.13;;;14.77;;
6973;SDS011;3527;52.376;8.990;2022-12-08T09:39:25;23.53;;;15.30;;
6973;SDS011;3527;52.376;8.990;2022-12-08T09:42:12;22.03;;;15.80;;
6973;SDS011;3527;52.376;8.990;2022-12-08T09:45:04;22.33;;;14.57;;
6973;SDS011;3527;52.376;8.990;2022-12-08T09:50:57;20.47;;;14.43;;
6973;SDS011;3527;52.376;8.990;2022-12-08T09:54:01;23.27;;;15.37;;
6973;SDS011;3527;52.376;8.990;2022-12-08T09:57:14;25.67;;;14.30;;
6973;SDS011;3527;52.376;8.990;2022-12-08T10:00:09;20.03;;;13.40;;
6973;SDS011;3527;52.376;8.990;2022-12-08T10:03:03;19.53;;;12.33;;
6973;SDS011;3527;52.376;8.990;2022-12-08T10:15:38;15.27;;;11.20;;
6973;SDS011;3527;52.376;8.990;2022-12-08T10:18:39;17.10;;;11.13;;
6973;SDS011;3527;52.376;8.990;2022-12-08T10:21:28;14.17;;;10.10;;
6973;SDS011;3527;52.376;8.990;2022-12-08T10:27:20;14.57;;;9.73;;
6973;SDS011;3527;52.376;8.990;2022-12-08T10:30:10;12.33;;;8.43;;
6973;SDS011;3527;52.376;8.990;2022-12-08T10:33:08;14.23;;;9.43;;
6973;SDS011;3527;52.376;8.990;2022-12-08T10:36:07;13.77;;;9.10;;
6973;SDS011;3527;52.376;8.990;2022-12-08T10:39:00;12.67;;;9.10;;
6973;SDS011;3527;52.376;8.990;2022-12-08T10:41:50;12.53;;;8.60;;
6973;SDS011;3527;52.376;8.990;2022-12-08T10:48:08;10.70;;;7.63;;
6973;SDS011;3527;52.376;8.990;2022-12-08T10:51:00;11.73;;;8.17;;
6973;SDS011;3527;52.376;8.990;2022-12-08T10:53:50;11.60;;;7.63;;
6973;SDS011;3527;52.376;8.990;2022-12-08T10:56:38;9.97;;;7.37;;
6973;SDS011;3527;52.376;8.990;2022-12-08T10:59:25;9.57;;;7.40;;
6973;SDS011;3527;52.376;8.990;2022-12-08T11:02:17;10.20;;;7.47;;
6973;SDS011;3527;52.376;8.990;2022-12-08T11:05:13;9.63;;;7.43;;
6973;SDS011;3527;52.376;8.990;2022-12-08T11:08:03;9.47;;;6.70;;
6973;SDS011;3527;52.376;8.990;2022-12-08T11:10:52;11.77;;;6.60;;
6973;SDS011;3527;52.376;8.990;2022-12-08T11:13:40;8.97;;;6.40;;
6973;SDS011;3527;52.376;8.990;2022-12-08T11:16:28;10.30;;;6.73;;
6973;SDS011;3527;52.376;8.990;2022-12-08T11:19:15;11.30;;;7.27;;
6973;SDS011;3527;52.376;8.990;2022-12-08T11:22:24;11.60;;;7.83;;
6973;SDS011;3527;52.376;8.990;2022-12-08T11:28:11;11.17;;;8.47;;
6973;SDS011;3527;52.376;8.990;2022-12-08T11:31:00;12.07;;;8.40;;
6973;SDS011;3527;52.376;8.990;2022-12-08T11:33:52;12.03;;;8.10;;
6973;SDS011;3527;52.376;8.990;2022-12-08T11:36:39;12.33;;;8.17;;
6973;SDS011;3527;52.376;8.990;2022-12-08T11:39:27;13.33;;;8.20;;
6973;SDS011;3527;52.376;8.990;2022-12-08T11:42:21;12.17;;;8.10;;
6973;SDS011;3527;52.376;8.990;2022-12-08T11:45:17;12.70;;;9.20;;
6973;SDS011;3527;52.376;8.990;2022-12-08T11:48:14;13.27;;;8.60;;
6973;SDS011;3527;52.376;8.990;2022-12-08T11:51:20;12.30;;;9.33;;
6973;SDS011;3527;52.376;8.990;2022-12-08T11:54:21;12.37;;;9.37;;
6973;SDS011;3527;52.376;8.990;2022-12-08T11:57:14;13.40;;;9.03;;
6973;SDS011;3527;52.376;8.990;2022-12-08T12:00:02;12.80;;;8.93;;
6973;SDS011;3527;52.376;8.990;2022-12-08T12:02:54;13.37;;;9.43;;
6973;SDS011;3527;52.376;8.990;2022-12-08T12:12:08;16.07;;;9.60;;
6973;SDS011;3527;52.376;8.990;2022-12-08T12:18:11;14.23;;;9.93;;
6973;SDS011;3527;52.376;8.990;2022-12-08T12:27:29;13.90;;;10.33;;
6973;SDS011;3527;52.376;8.990;2022-12-08T12:30:26;14.97;;;10.40;;
6973;SDS011;3527;52.376;8.990;2022-12-08T12:33:18;14.93;;;10.07;;
6973;SDS011;3527;52.376;8.990;2022-12-08T12:36:06;13.60;;;9.43;;
6973;SDS011;3527;52.376;8.990;2022-12-08T12:38:56;12.33;;;9.40;;
6973;SDS011;3527;52.376;8.990;2022-12-08T12:41:51;12.13;;;9.07;;
6973;SDS011;3527;52.376;8.990;2022-12-08T12:44:43;14.07;;;9.20;;
6973;SDS011;3527;52.376;8.990;2022-12-08T12:50:43;17.63;;;9.87;;
6973;SDS011;3527;52.376;8.990;2022-12-08T13:05:26;15.37;;;9.70;;
6973;SDS011;3527;52.376;8.990;2022-12-08T13:08:24;12.57;;;9.23;;
6973;SDS011;3527;52.376;8.990;2022-12-08T13:11:15;13.57;;;9.07;;
6973;SDS011;3527;52.376;8.990;2022-12-08T13:14:03;11.87;;;8.63;;
6973;SDS011;3527;52.376;8.990;2022-12-08T13:16:52;14.03;;;9.87;;
6973;SDS011;3527;52.376;8.990;2022-12-08T13:19:42;13.50;;;8.67;;
6973;SDS011;3527;52.376;8.990;2022-12-08T13:28:29;15.77;;;9.30;;
6973;SDS011;3527;52.376;8.990;2022-12-08T13:31:36;11.80;;;8.53;;
6973;SDS011;3527;52.376;8.990;2022-12-08T13:37:27;15.03;;;9.07;;
6973;SDS011;3527;52.376;8.990;2022-12-08T13:40:23;13.60;;;9.37;;
6973;SDS011;3527;52.376;8.990;2022-12-08T13:43:36;16.83;;;10.00;;
6973;SDS011;3527;52.376;8.990;2022-12-08T13:46:42;12.77;;;8.47;;
6973;SDS011;3527;52.376;8.990;2022-12-08T13:50:34;13.40;;;8.47;;
6973;SDS011;3527;52.376;8.990;2022-12-08T13:54:17;12.23;;;6.70;;
6973;SDS011;3527;52.376;8.990;2022-12-08T13:57:32;12.23;;;8.07;;
6973;SDS011;3527;52.376;8.990;2022-12-08T14:00:22;13.17;;;8.73;;
6973;SDS011;3527;52.376;8.990;2022-12-08T14:03:09;13.73;;;8.83;;
6973;SDS011;3527;52.376;8.990;2022-12-08T14:05:58;11.73;;;8.20;;
6973;SDS011;3527;52.376;8.990;2022-12-08T14:08:58;12.83;;;8.63;;
6973;SDS011;3527;52.376;8.990;2022-12-08T14:12:16;13.43;;;8.47;;
6973;SDS011;3527;52.376;8.990;2022-12-08T14:15:04;16.03;;;8.50;;
6973;SDS011;3527;52.376;8.990;2022-12-08T14:17:54;12.83;;;8.30;;
6973;SDS011;3527;52.376;8.990;2022-12-08T14:20:42;14.43;;;8.00;;
6973;SDS011;3527;52.376;8.990;2022-12-08T14:23:49;15.93;;;8.80;;
6973;SDS011;3527;52.376;8.990;2022-12-08T14:26:36;13.37;;;8.63;;
6973;SDS011;3527;52.376;8.990;2022-12-08T14:29:45;13.73;;;8.13;;
6973;SDS011;3527;52.376;8.990;2022-12-08T14:32:37;13.07;;;8.23;;
6973;SDS011;3527;52.376;8.990;2022-12-08T14:35:29;13.53;;;9.03;;
6973;SDS011;3527;52.376;8.990;2022-12-08T14:38:23;12.07;;;8.33;;
6973;SDS011;3527;52.376;8.990;2022-12-08T14:41:11;13.27;;;8.87;;
6973;SDS011;3527;52.376;8.990;2022-12-08T14:43:59;13.37;;;8.23;;
6973;SDS011;3527;52.376;8.990;2022-12-08T14:47:07;13.33;;;8.27;;
6973;SDS011;3527;52.376;8.990;2022-12-08T14:49:55;11.80;;;7.70;;
6973;SDS011;3527;52.376;8.990;2022-12-08T14:52:43;11.03;;;7.70;;
6973;SDS011;3527;52.376;8.990;2022-12-08T14:55:34;13.27;;;9.17;;
6973;SDS011;3527;52.376;8.990;2022-12-08T14:58:28;11.27;;;7.93;;
6973;SDS011;3527;52.376;8.990;2022-12-08T15:01:20;10.57;;;7.33;;
6973;SDS011;3527;52.376;8.990;2022-12-08T15:04:14;12.53;;;7.73;;
6973;SDS011;3527;52.376;8.990;2022-12-08T15:07:17;13.43;;;7.67;;
6973;SDS011;3527;52.376;8.990;2022-12-08T15:15:57;11.50;;;6.93;;
6973;SDS011;3527;52.376;8.990;2022-12-08T15:18:46;12.00;;;7.37;;
6973;SDS011;3527;52.376;8.990;2022-12-08T15:21:49;10.83;;;7.77;;
6973;SDS011;3527;52.376;8.990;2022-12-08T15:24:38;12.80;;;8.40;;
6973;SDS011;3527;52.376;8.990;2022-12-08T15:27:26;12.93;;;8.40;;
6973;SDS011;3527;52.376;8.990;2022-12-08T15:30:16;13.37;;;8.60;;
6973;SDS011;3527;52.376;8.990;2022-12-08T15:33:06;12.90;;;7.87;;
6973;SDS011;3527;52.376;8.990;2022-12-08T15:35:56;12.43;;;7.87;;
6973;SDS011;3527;52.376;8.990;2022-12-08T15:38:45;13.57;;;8.10;;
6973;SDS011;3527;52.376;8.990;2022-12-08T15:41:34;15.13;;;8.40;;
6973;SDS011;3527;52.376;8.990;2022-12-08T15:44:25;12.33;;;8.33;;
6973;SDS011;3527;52.376;8.990;2022-12-08T15:47:22;13.50;;;8.60;;
6973;SDS011;3527;52.376;8.990;2022-12-08T15:50:13;14.23;;;8.83;;
6973;SDS011;3527;52.376;8.990;2022-12-08T15:53:04;12.53;;;8.10;;
6973;SDS011;3527;52.376;8.990;2022-12-08T15:55:52;12.67;;;8.50;;
6973;SDS011;3527;52.376;8.990;2022-12-08T15:59:05;12.37;;;8.40;;
6973;SDS011;3527;52.376;8.990;2022-12-08T16:01:57;11.57;;;7.70;;
6973;SDS011;3527;52.376;8.990;2022-12-08T16:04:47;12.83;;;8.13;;
6973;SDS011;3527;52.376;8.990;2022-12-08T16:07:56;10.67;;;7.53;;
6973;SDS011;3527;52.376;8.990;2022-12-08T16:10:57;13.93;;;7.80;;
6973;SDS011;3527;52.376;8.990;2022-12-08T16:14:23;11.47;;;7.87;;
6973;SDS011;3527;52.376;8.990;2022-12-08T16:17:33;11.20;;;7.47;;
6973;SDS011;3527;52.376;8.990;2022-12-08T16:20:23;11.80;;;8.13;;
6973;SDS011;3527;52.376;8.990;2022-12-08T16:23:32;14.40;;;7.27;;
6973;SDS011;3527;52.376;8.990;2022-12-08T16:26:30;10.93;;;6.97;;
6973;SDS011;3527;52.376;8.990;2022-12-08T16:29:37;13.73;;;7.33;;
6973;SDS011;3527;52.376;8.990;2022-12-08T16:32:25;12.73;;;7.30;;
6973;SDS011;3527;52.376;8.990;2022-12-08T16:35:13;13.73;;;7.93;;
6973;SDS011;3527;52.376;8.990;2022-12-08T16:38:00;13.00;;;8.17;;
6973;SDS011;3527;52.376;8.990;2022-12-08T16:40:48;12.40;;;7.23;;
6973;SDS011;3527;52.376;8.990;2022-12-08T16:43:57;13.13;;;7.53;;
6973;SDS011;3527;52.376;8.990;2022-12-08T16:46:51;15.30;;;7.07;;
6973;SDS011;3527;52.376;8.990;2022-12-08T16:49:39;15.03;;;7.70;;
6973;SDS011;3527;52.376;8.990;2022-12-08T16:52:28;11.87;;;7.67;;
6973;SDS011;3527;52.376;8.990;2022-12-08T16:55:16;13.20;;;7.53;;
6973;SDS011;3527;52.376;8.990;2022-12-08T16:58:05;11.83;;;7.37;;
6973;SDS011;3527;52.376;8.990;2022-12-08T17:00:52;13.37;;;8.07;;
6973;SDS011;3527;52.376;8.990;2022-12-08T17:03:41;16.27;;;7.90;;
6973;SDS011;3527;52.376;8.990;2022-12-08T17:06:50;15.47;;;8.43;;
6973;SDS011;3527;52.376;8.990;2022-12-08T17:09:40;15.30;;;9.27;;
6973;SDS011;3527;52.376;8.990;2022-12-08T17:12:31;15.87;;;8.97;;
6973;SDS011;3527;52.376;8.990;2022-12-08T17:15:26;20.73;;;8.90;;
6973;SDS011;3527;52.376;8.990;2022-12-08T17:18:15;12.30;;;7.10;;
6973;SDS011;3527;52.376;8.990;2022-12-08T17:21:07;12.60;;;7.23;;
6973;SDS011;3527;52.376;8.990;2022-12-08T17:23:58;13.27;;;8.00;;
6973;SDS011;3527;52.376;8.990;2022-12-08T17:26:50;13.40;;;8.63;;
6973;SDS011;3527;52.376;8.990;2022-12-08T17:29:39;12.63;;;8.77;;
6973;SDS011;3527;52.376;8.990;2022-12-08T17:32:27;16.83;;;8.83;;
6973;SDS011;3527;52.376;8.990;2022-12-08T17:35:15;13.83;;;8.47;;
6973;SDS011;3527;52.376;8.990;2022-12-08T17:38:05;15.87;;;9.20;;
6973;SDS011;3527;52.376;8.990;2022-12-08T17:40:52;14.83;;;7.83;;
6973;SDS011;3527;52.376;8.990;2022-12-08T17:43:44;14.90;;;8.27;;
6973;SDS011;3527;52.376;8.990;2022-12-08T17:46:35;17.83;;;10.57;;
6973;SDS011;3527;52.376;8.990;2022-12-08T17:49:29;15.13;;;8.93;;
6973;SDS011;3527;52.376;8.990;2022-12-08T17:52:19;16.90;;;8.23;;
6973;SDS011;3527;52.376;8.990;2022-12-08T17:55:08;14.90;;;9.23;;
6973;SDS011;3527;52.376;8.990;2022-12-08T17:57:56;14.73;;;9.37;;
6973;SDS011;3527;52.376;8.990;2022-12-08T18:00:43;18.07;;;9.23;;
6973;SDS011;3527;52.376;8.990;2022-12-08T18:03:30;14.93;;;9.27;;
6973;SDS011;3527;52.376;8.990;2022-12-08T18:06:18;18.77;;;9.87;;
6973;SDS011;3527;52.376;8.990;2022-12-08T18:09:07;17.87;;;10.23;;
6973;SDS011;3527;52.376;8.990;2022-12-08T18:11:55;20.17;;;11.57;;
6973;SDS011;3527;52.376;8.990;2022-12-08T18:14:42;21.23;;;12.10;;
6973;SDS011;3527;52.376;8.990;2022-12-08T18:17:32;22.47;;;12.23;;
6973;SDS011;3527;52.376;8.990;2022-12-08T18:20:19;17.60;;;11.33;;
6973;SDS011;3527;52.376;8.990;2022-12-08T18:23:06;23.00;;;12.03;;
6973;SDS011;3527;52.376;8.990;2022-12-08T18:25:54;23.47;;;14.20;;
6973;SDS011;3527;52.376;8.990;2022-12-08T18:28:41;24.37;;;13.97;;
6973;SDS011;3527;52.376;8.990;2022-12-08T18:31:32;25.43;;;15.07;;
6973;SDS011;3527;52.376;8.990;2022-12-08T18:34:20;22.40;;;13.37;;
6973;SDS011;3527;52.376;8.990;2022-12-08T18:37:08;21.73;;;12.53;;
6973;SDS011;3527;52.376;8.990;2022-12-08T18:39:56;21.13;;;13.47;;
6973;SDS011;3527;52.376;8.990;2022-12-08T18:42:45;19.90;;;12.27;;
6973;SDS011;3527;52.376;8.990;2022-12-08T18:45:33;18.47;;;10.60;;
6973;SDS011;3527;52.376;8.990;2022-12-08T18:48:25;24.40;;;13.30;;